sensor_id;sensor_type;location;lat;lon;timestamp;temperature;humidity
27779;DHT22;30234;48.090;11.464;2023-05-06T00:00:31;11.10;99.90
27779;DHT22;30234;48.090;11.464;2023-05-06T00:04:32;11.00;99.90
27779;DHT22;30234;48.090;11.464;2023-05-06T00:08:34;11.10;99.90
27779;DHT22;30234;48.090;11.464;2023-05-06T00:12:35;11.10;99.90
27779;DHT22;30234;48.090;11.464;2023-05-06T00:16:36;11.20;99.90
27779;DHT22;30234;48.090;11.464;2023-05-06T00:20:37;11.20;99.90
27779;DHT22;30234;48.090;11.464;2023-05-06T00:24:38;11.10;99.90
27779;DHT22;30234;48.090;11.464;2023-05-06T00:28:39;11.10;99.90
27779;DHT22;30234;48.090;11.464;2023-05-06T00:32:40;11.20;99.90
27779;DHT22;30234;48.090;11.464;2023-05-06T00:36:41;11.10;99.90
27779;DHT22;30234;48.090;11.464;2023-05-06T00:40:42;10.90;99.90
27779;DHT22;30234;48.090;11.464;2023-05-06T00:44:43;10.80;99.90
27779;DHT22;30234;48.090;11.464;2023-05-06T00:48:44;10.60;99.90
27779;DHT22;30234;48.090;11.464;2023-05-06T00:52:45;10.50;99.90
27779;DHT22;30234;48.090;11.464;2023-05-06T00:56:46;10.40;99.90
27779;DHT22;30234;48.090;11.464;2023-05-06T01:00:48;10.30;99.90
27779;DHT22;30234;48.090;11.464;2023-05-06T01:04:49;10.20;99.90
27779;DHT22;30234;48.090;11.464;2023-05-06T01:09:09;10.00;99.90
27779;DHT22;30234;48.090;11.464;2023-05-06T01:17:52;9.80;99.90
27779;DHT22;30234;48.090;11.464;2023-05-06T01:21:54;9.80;99.90
27779;DHT22;30234;48.090;11.464;2023-05-06T01:25:56;9.80;99.90
27779;DHT22;30234;48.090;11.464;2023-05-06T01:29:57;9.80;99.90
27779;DHT22;30234;48.090;11.464;2023-05-06T01:34:17;9.90;99.90
27779;DHT22;30234;48.090;11.464;2023-05-06T01:38:37;9.80;99.90
27779;DHT22;30234;48.090;11.464;2023-05-06T01:42:47;9.80;99.90
27779;DHT22;30234;48.090;11.464;2023-05-06T01:46:50;9.60;99.90
27779;DHT22;30234;48.090;11.464;2023-05-06T01:50:52;9.50;99.90
27779;DHT22;30234;48.090;11.464;2023-05-06T01:54:53;9.40;99.90
27779;DHT22;30234;48.090;11.464;2023-05-06T01:58:57;9.50;99.90
27779;DHT22;30234;48.090;11.464;2023-05-06T02:02:58;9.50;99.90
27779;DHT22;30234;48.090;11.464;2023-05-06T02:06:59;9.60;99.90
27779;DHT22;30234;48.090;11.464;2023-05-06T02:11:00;9.70;99.90
27779;DHT22;30234;48.090;11.464;2023-05-06T02:15:01;9.50;99.90
27779;DHT22;30234;48.090;11.464;2023-05-06T02:19:03;9.50;99.90
27779;DHT22;30234;48.090;11.464;2023-05-06T02:23:05;9.60;99.90
27779;DHT22;30234;48.090;11.464;2023-05-06T02:27:06;9.70;99.90
27779;DHT22;30234;48.090;11.464;2023-05-06T02:31:07;9.80;99.90
27779;DHT22;30234;48.090;11.464;2023-05-06T02:35:08;9.90;99.90
27779;DHT22;30234;48.090;11.464;2023-05-06T02:39:09;9.90;99.90
27779;DHT22;30234;48.090;11.464;2023-05-06T02:43:10;9.90;99.90
27779;DHT22;30234;48.090;11.464;2023-05-06T02:47:30;9.80;99.90
27779;DHT22;30234;48.090;11.464;2023-05-06T02:51:30;9.70;99.90
27779;DHT22;30234;48.090;11.464;2023-05-06T02:55:31;9.80;99.90
27779;DHT22;30234;48.090;11.464;2023-05-06T02:59:34;9.90;99.90
27779;DHT22;30234;48.090;11.464;2023-05-06T03:03:35;9.80;99.90
27779;DHT22;30234;48.090;11.464;2023-05-06T03:07:36;9.80;99.90
27779;DHT22;30234;48.090;11.464;2023-05-06T03:11:37;9.80;99.90
27779;DHT22;30234;48.090;11.464;2023-05-06T03:15:38;9.70;99.90
27779;DHT22;30234;48.090;11.464;2023-05-06T03:19:39;9.60;99.90
27779;DHT22;30234;48.090;11.464;2023-05-06T03:23:40;9.60;99.90
27779;DHT22;30234;48.090;11.464;2023-05-06T03:27:41;9.50;99.90
27779;DHT22;30234;48.090;11.464;2023-05-06T03:31:42;9.40;99.90
27779;DHT22;30234;48.090;11.464;2023-05-06T03:35:44;9.40;99.90
27779;DHT22;30234;48.090;11.464;2023-05-06T03:39:45;9.30;99.90
27779;DHT22;30234;48.090;11.464;2023-05-06T03:43:45;9.30;99.90
27779;DHT22;30234;48.090;11.464;2023-05-06T03:47:46;9.30;99.90
27779;DHT22;30234;48.090;11.464;2023-05-06T03:51:47;9.30;99.90
27779;DHT22;30234;48.090;11.464;2023-05-06T03:55:48;9.20;99.90
27779;DHT22;30234;48.090;11.464;2023-05-06T03:59:49;9.20;99.90
27779;DHT22;30234;48.090;11.464;2023-05-06T04:03:50;9.20;99.90
27779;DHT22;30234;48.090;11.464;2023-05-06T04:07:53;9.20;99.90
27779;DHT22;30234;48.090;11.464;2023-05-06T04:11:54;9.20;99.90
27779;DHT22;30234;48.090;11.464;2023-05-06T04:15:55;9.20;99.90
27779;DHT22;30234;48.090;11.464;2023-05-06T04:19:56;9.30;99.90
27779;DHT22;30234;48.090;11.464;2023-05-06T04:23:57;9.30;99.90
27779;DHT22;30234;48.090;11.464;2023-05-06T04:27:58;9.50;99.90
27779;DHT22;30234;48.090;11.464;2023-05-06T04:31:59;9.70;99.90
27779;DHT22;30234;48.090;11.464;2023-05-06T04:36:00;9.90;99.90
27779;DHT22;30234;48.090;11.464;2023-05-06T04:40:02;10.10;99.90
27779;DHT22;30234;48.090;11.464;2023-05-06T04:44:04;10.40;99.90
27779;DHT22;30234;48.090;11.464;2023-05-06T04:48:05;11.10;99.90
27779;DHT22;30234;48.090;11.464;2023-05-06T04:52:06;12.20;99.90
27779;DHT22;30234;48.090;11.464;2023-05-06T04:56:07;12.70;99.90
27779;DHT22;30234;48.090;11.464;2023-05-06T05:00:08;14.30;99.90
27779;DHT22;30234;48.090;11.464;2023-05-06T05:04:09;16.20;99.90
27779;DHT22;30234;48.090;11.464;2023-05-06T05:08:10;16.90;99.90
27779;DHT22;30234;48.090;11.464;2023-05-06T05:12:12;17.20;99.90
27779;DHT22;30234;48.090;11.464;2023-05-06T05:16:13;16.40;99.90
27779;DHT22;30234;48.090;11.464;2023-05-06T05:20:14;15.30;99.90
27779;DHT22;30234;48.090;11.464;2023-05-06T05:24:15;14.50;99.90
27779;DHT22;30234;48.090;11.464;2023-05-06T05:28:16;14.00;99.90
27779;DHT22;30234;48.090;11.464;2023-05-06T05:32:17;13.60;99.90
27779;DHT22;30234;48.090;11.464;2023-05-06T05:36:19;13.30;99.90
27779;DHT22;30234;48.090;11.464;2023-05-06T05:40:20;13.20;99.90
27779;DHT22;30234;48.090;11.464;2023-05-06T05:44:21;13.30;99.90
27779;DHT22;30234;48.090;11.464;2023-05-06T05:48:22;13.40;99.90
27779;DHT22;30234;48.090;11.464;2023-05-06T05:52:23;13.50;99.90
27779;DHT22;30234;48.090;11.464;2023-05-06T05:56:24;13.60;99.90
27779;DHT22;30234;48.090;11.464;2023-05-06T06:00:25;13.90;99.90
27779;DHT22;30234;48.090;11.464;2023-05-06T06:04:25;14.30;99.90
27779;DHT22;30234;48.090;11.464;2023-05-06T06:08:26;14.60;99.90
27779;DHT22;30234;48.090;11.464;2023-05-06T06:12:29;14.60;99.90
27779;DHT22;30234;48.090;11.464;2023-05-06T06:16:30;14.60;99.90
27779;DHT22;30234;48.090;11.464;2023-05-06T06:20:31;14.60;99.90
27779;DHT22;30234;48.090;11.464;2023-05-06T06:24:31;14.70;99.90
27779;DHT22;30234;48.090;11.464;2023-05-06T06:28:34;14.60;99.90
27779;DHT22;30234;48.090;11.464;2023-05-06T06:32:35;14.60;99.90
27779;DHT22;30234;48.090;11.464;2023-05-06T06:36:39;14.70;99.90
27779;DHT22;30234;48.090;11.464;2023-05-06T06:40:44;14.40;99.90
27779;DHT22;30234;48.090;11.464;2023-05-06T06:44:45;14.50;99.90
27779;DHT22;30234;48.090;11.464;2023-05-06T06:48:47;14.50;99.90
27779;DHT22;30234;48.090;11.464;2023-05-06T06:52:47;14.60;99.90
27779;DHT22;30234;48.090;11.464;2023-05-06T06:56:48;14.70;99.90
27779;DHT22;30234;48.090;11.464;2023-05-06T07:00:49;14.70;99.90
27779;DHT22;30234;48.090;11.464;2023-05-06T07:04:50;15.10;99.90
27779;DHT22;30234;48.090;11.464;2023-05-06T07:08:51;15.40;99.90
27779;DHT22;30234;48.090;11.464;2023-05-06T07:12:52;15.60;99.90
27779;DHT22;30234;48.090;11.464;2023-05-06T07:16:53;15.80;99.90
27779;DHT22;30234;48.090;11.464;2023-05-06T07:20:55;15.90;99.90
27779;DHT22;30234;48.090;11.464;2023-05-06T07:24:56;16.30;99.90
27779;DHT22;30234;48.090;11.464;2023-05-06T07:28:57;17.00;99.90
27779;DHT22;30234;48.090;11.464;2023-05-06T07:32:57;17.10;99.90
27779;DHT22;30234;48.090;11.464;2023-05-06T07:36:58;16.70;99.90
27779;DHT22;30234;48.090;11.464;2023-05-06T07:40:59;17.00;99.90
27779;DHT22;30234;48.090;11.464;2023-05-06T07:45:00;17.10;99.90
27779;DHT22;30234;48.090;11.464;2023-05-06T07:49:01;18.10;99.90
27779;DHT22;30234;48.090;11.464;2023-05-06T07:53:02;19.00;99.90
27779;DHT22;30234;48.090;11.464;2023-05-06T07:57:03;19.70;99.90
27779;DHT22;30234;48.090;11.464;2023-05-06T08:01:04;20.10;99.90
27779;DHT22;30234;48.090;11.464;2023-05-06T08:05:06;19.90;99.90
27779;DHT22;30234;48.090;11.464;2023-05-06T08:09:08;19.40;99.90
27779;DHT22;30234;48.090;11.464;2023-05-06T08:13:09;19.60;99.90
27779;DHT22;30234;48.090;11.464;2023-05-06T08:17:12;19.60;99.90
27779;DHT22;30234;48.090;11.464;2023-05-06T08:21:13;19.90;99.90
27779;DHT22;30234;48.090;11.464;2023-05-06T08:25:14;20.60;99.90
27779;DHT22;30234;48.090;11.464;2023-05-06T08:29:14;20.70;99.90
27779;DHT22;30234;48.090;11.464;2023-05-06T08:33:15;21.10;99.90
27779;DHT22;30234;48.090;11.464;2023-05-06T08:37:16;21.90;99.90
27779;DHT22;30234;48.090;11.464;2023-05-06T08:41:19;23.10;99.90
27779;DHT22;30234;48.090;11.464;2023-05-06T08:45:21;22.70;99.90
27779;DHT22;30234;48.090;11.464;2023-05-06T08:49:23;22.20;99.90
27779;DHT22;30234;48.090;11.464;2023-05-06T08:53:24;21.70;99.90
27779;DHT22;30234;48.090;11.464;2023-05-06T08:57:28;21.20;99.90
27779;DHT22;30234;48.090;11.464;2023-05-06T09:01:30;20.60;99.90
27779;DHT22;30234;48.090;11.464;2023-05-06T09:05:31;20.30;99.90
27779;DHT22;30234;48.090;11.464;2023-05-06T09:09:31;20.70;99.90
27779;DHT22;30234;48.090;11.464;2023-05-06T09:13:32;21.90;99.90
27779;DHT22;30234;48.090;11.464;2023-05-06T09:17:33;22.40;99.90
27779;DHT22;30234;48.090;11.464;2023-05-06T09:21:40;23.00;99.90
27779;DHT22;30234;48.090;11.464;2023-05-06T09:25:44;24.70;99.90
27779;DHT22;30234;48.090;11.464;2023-05-06T09:30:05;24.40;99.90
27779;DHT22;30234;48.090;11.464;2023-05-06T09:34:08;23.50;99.90
27779;DHT22;30234;48.090;11.464;2023-05-06T09:38:10;22.80;99.90
27779;DHT22;30234;48.090;11.464;2023-05-06T09:42:10;22.00;99.90
27779;DHT22;30234;48.090;11.464;2023-05-06T09:46:12;21.80;99.90
27779;DHT22;30234;48.090;11.464;2023-05-06T09:50:13;24.10;99.90
27779;DHT22;30234;48.090;11.464;2023-05-06T09:54:15;27.10;98.50
27779;DHT22;30234;48.090;11.464;2023-05-06T09:58:17;26.80;94.80
27779;DHT22;30234;48.090;11.464;2023-05-06T10:02:21;25.60;95.80
27779;DHT22;30234;48.090;11.464;2023-05-06T10:06:23;24.00;97.80
27779;DHT22;30234;48.090;11.464;2023-05-06T10:10:26;24.30;98.10
27779;DHT22;30234;48.090;11.464;2023-05-06T10:14:28;23.70;98.00
27779;DHT22;30234;48.090;11.464;2023-05-06T10:18:29;23.90;99.60
27779;DHT22;30234;48.090;11.464;2023-05-06T10:22:51;26.00;96.30
27779;DHT22;30234;48.090;11.464;2023-05-06T10:27:17;28.10;91.90
27779;DHT22;30234;48.090;11.464;2023-05-06T10:31:23;25.70;90.40
27779;DHT22;30234;48.090;11.464;2023-05-06T10:35:45;26.10;91.60
27779;DHT22;30234;48.090;11.464;2023-05-06T10:39:52;25.30;94.40
27779;DHT22;30234;48.090;11.464;2023-05-06T10:43:54;23.50;95.00
27779;DHT22;30234;48.090;11.464;2023-05-06T10:52:11;23.60;95.20
27779;DHT22;30234;48.090;11.464;2023-05-06T10:56:13;22.60;96.40
27779;DHT22;30234;48.090;11.464;2023-05-06T11:00:15;23.80;95.10
27779;DHT22;30234;48.090;11.464;2023-05-06T11:04:18;25.60;91.90
27779;DHT22;30234;48.090;11.464;2023-05-06T11:08:24;27.30;90.10
27779;DHT22;30234;48.090;11.464;2023-05-06T11:16:50;25.60;86.10
27779;DHT22;30234;48.090;11.464;2023-05-06T11:25:05;23.40;92.50
27779;DHT22;30234;48.090;11.464;2023-05-06T11:29:07;22.70;94.60
27779;DHT22;30234;48.090;11.464;2023-05-06T11:33:15;21.80;97.00
27779;DHT22;30234;48.090;11.464;2023-05-06T11:37:24;22.10;96.00
27779;DHT22;30234;48.090;11.464;2023-05-06T11:41:26;21.90;95.80
27779;DHT22;30234;48.090;11.464;2023-05-06T11:45:47;21.90;96.50
27779;DHT22;30234;48.090;11.464;2023-05-06T11:49:52;22.20;95.40
27779;DHT22;30234;48.090;11.464;2023-05-06T11:54:05;23.20;95.30
27779;DHT22;30234;48.090;11.464;2023-05-06T11:58:13;24.90;91.60
27779;DHT22;30234;48.090;11.464;2023-05-06T12:02:17;26.60;90.20
27779;DHT22;30234;48.090;11.464;2023-05-06T12:06:33;26.50;86.60
27779;DHT22;30234;48.090;11.464;2023-05-06T12:10:35;25.00;87.20
27779;DHT22;30234;48.090;11.464;2023-05-06T12:14:36;24.60;90.60
27779;DHT22;30234;48.090;11.464;2023-05-06T12:18:38;24.60;89.30
27779;DHT22;30234;48.090;11.464;2023-05-06T12:22:39;26.40;89.10
27779;DHT22;30234;48.090;11.464;2023-05-06T12:26:47;27.20;83.50
27779;DHT22;30234;48.090;11.464;2023-05-06T12:30:49;27.80;80.10
27779;DHT22;30234;48.090;11.464;2023-05-06T12:34:50;27.70;76.70
27779;DHT22;30234;48.090;11.464;2023-05-06T12:38:55;28.00;72.60
27779;DHT22;30234;48.090;11.464;2023-05-06T12:42:57;27.00;73.80
27779;DHT22;30234;48.090;11.464;2023-05-06T12:47:03;26.70;74.30
27779;DHT22;30234;48.090;11.464;2023-05-06T12:51:23;25.90;76.20
27779;DHT22;30234;48.090;11.464;2023-05-06T12:55:25;24.60;80.90
27779;DHT22;30234;48.090;11.464;2023-05-06T12:59:26;25.10;79.20
27779;DHT22;30234;48.090;11.464;2023-05-06T13:03:27;25.30;74.30
27779;DHT22;30234;48.090;11.464;2023-05-06T13:07:29;25.00;79.00
27779;DHT22;30234;48.090;11.464;2023-05-06T13:11:30;26.20;76.60
27779;DHT22;30234;48.090;11.464;2023-05-06T13:15:31;26.60;75.20
27779;DHT22;30234;48.090;11.464;2023-05-06T13:19:33;27.60;70.80
27779;DHT22;30234;48.090;11.464;2023-05-06T13:23:34;27.90;70.00
27779;DHT22;30234;48.090;11.464;2023-05-06T13:27:37;27.90;67.40
27779;DHT22;30234;48.090;11.464;2023-05-06T13:31:38;27.70;68.80
27779;DHT22;30234;48.090;11.464;2023-05-06T13:35:39;27.30;67.00
27779;DHT22;30234;48.090;11.464;2023-05-06T13:39:40;25.80;69.90
27779;DHT22;30234;48.090;11.464;2023-05-06T13:43:42;26.10;71.90
27779;DHT22;30234;48.090;11.464;2023-05-06T13:47:43;26.70;68.60
27779;DHT22;30234;48.090;11.464;2023-05-06T13:51:44;27.50;66.60
27779;DHT22;30234;48.090;11.464;2023-05-06T13:55:45;28.00;65.70
27779;DHT22;30234;48.090;11.464;2023-05-06T13:59:46;28.20;63.10
27779;DHT22;30234;48.090;11.464;2023-05-06T14:03:49;28.60;61.00
27779;DHT22;30234;48.090;11.464;2023-05-06T14:07:50;26.80;65.50
27779;DHT22;30234;48.090;11.464;2023-05-06T14:11:51;26.40;67.50
27779;DHT22;30234;48.090;11.464;2023-05-06T14:15:52;25.50;67.50
27779;DHT22;30234;48.090;11.464;2023-05-06T14:19:54;24.80;71.20
27779;DHT22;30234;48.090;11.464;2023-05-06T14:23:55;24.80;71.30
27779;DHT22;30234;48.090;11.464;2023-05-06T14:27:56;25.60;69.50
27779;DHT22;30234;48.090;11.464;2023-05-06T14:31:58;26.60;66.00
27779;DHT22;30234;48.090;11.464;2023-05-06T14:35:59;26.20;66.90
27779;DHT22;30234;48.090;11.464;2023-05-06T14:40:04;25.50;68.90
27779;DHT22;30234;48.090;11.464;2023-05-06T14:44:05;24.90;69.80
27779;DHT22;30234;48.090;11.464;2023-05-06T14:48:06;25.50;68.60
27779;DHT22;30234;48.090;11.464;2023-05-06T14:52:07;26.20;66.70
27779;DHT22;30234;48.090;11.464;2023-05-06T14:56:09;26.00;65.50
27779;DHT22;30234;48.090;11.464;2023-05-06T15:00:11;25.40;66.90
27779;DHT22;30234;48.090;11.464;2023-05-06T15:04:14;27.00;66.30
27779;DHT22;30234;48.090;11.464;2023-05-06T15:08:15;27.70;62.10
27779;DHT22;30234;48.090;11.464;2023-05-06T15:12:16;27.00;62.80
27779;DHT22;30234;48.090;11.464;2023-05-06T15:16:17;26.60;63.70
27779;DHT22;30234;48.090;11.464;2023-05-06T15:20:18;26.30;64.40
27779;DHT22;30234;48.090;11.464;2023-05-06T15:24:19;27.20;62.90
27779;DHT22;30234;48.090;11.464;2023-05-06T15:28:20;27.50;62.10
27779;DHT22;30234;48.090;11.464;2023-05-06T15:32:22;26.50;63.90
27779;DHT22;30234;48.090;11.464;2023-05-06T15:36:23;25.30;66.30
27779;DHT22;30234;48.090;11.464;2023-05-06T15:40:24;24.20;69.20
27779;DHT22;30234;48.090;11.464;2023-05-06T15:44:26;23.70;70.40
27779;DHT22;30234;48.090;11.464;2023-05-06T15:48:27;23.50;71.40
27779;DHT22;30234;48.090;11.464;2023-05-06T15:52:28;22.80;73.50
27779;DHT22;30234;48.090;11.464;2023-05-06T15:56:29;22.60;74.70
27779;DHT22;30234;48.090;11.464;2023-05-06T16:00:30;22.70;72.10
27779;DHT22;30234;48.090;11.464;2023-05-06T16:04:31;22.40;72.40
27779;DHT22;30234;48.090;11.464;2023-05-06T16:08:32;22.10;73.60
27779;DHT22;30234;48.090;11.464;2023-05-06T16:12:33;22.00;75.00
27779;DHT22;30234;48.090;11.464;2023-05-06T16:16:35;21.80;74.80
27779;DHT22;30234;48.090;11.464;2023-05-06T16:20:36;21.70;75.50
27779;DHT22;30234;48.090;11.464;2023-05-06T16:24:37;21.60;77.30
27779;DHT22;30234;48.090;11.464;2023-05-06T16:28:38;21.40;78.90
27779;DHT22;30234;48.090;11.464;2023-05-06T16:32:39;21.40;79.50
27779;DHT22;30234;48.090;11.464;2023-05-06T16:36:40;21.30;79.40
27779;DHT22;30234;48.090;11.464;2023-05-06T16:40:42;21.40;79.50
27779;DHT22;30234;48.090;11.464;2023-05-06T16:44:47;21.70;79.00
27779;DHT22;30234;48.090;11.464;2023-05-06T16:48:48;21.80;78.30
27779;DHT22;30234;48.090;11.464;2023-05-06T16:52:49;22.10;78.50
27779;DHT22;30234;48.090;11.464;2023-05-06T16:56:52;22.30;77.20
27779;DHT22;30234;48.090;11.464;2023-05-06T17:00:53;22.10;77.10
27779;DHT22;30234;48.090;11.464;2023-05-06T17:04:54;22.00;77.10
27779;DHT22;30234;48.090;11.464;2023-05-06T17:08:56;21.70;78.50
27779;DHT22;30234;48.090;11.464;2023-05-06T17:12:57;21.40;79.20
27779;DHT22;30234;48.090;11.464;2023-05-06T17:16:58;21.20;80.30
27779;DHT22;30234;48.090;11.464;2023-05-06T17:21:05;21.00;81.50
27779;DHT22;30234;48.090;11.464;2023-05-06T17:25:07;20.40;83.00
27779;DHT22;30234;48.090;11.464;2023-05-06T17:29:08;20.00;85.40
27779;DHT22;30234;48.090;11.464;2023-05-06T17:33:09;19.70;87.40
27779;DHT22;30234;48.090;11.464;2023-05-06T17:37:10;19.50;87.70
27779;DHT22;30234;48.090;11.464;2023-05-06T17:41:11;19.10;89.30
27779;DHT22;30234;48.090;11.464;2023-05-06T17:45:12;19.00;90.10
27779;DHT22;30234;48.090;11.464;2023-05-06T17:49:13;18.70;91.10
27779;DHT22;30234;48.090;11.464;2023-05-06T17:53:15;18.40;92.20
27779;DHT22;30234;48.090;11.464;2023-05-06T17:57:16;18.10;93.40
27779;DHT22;30234;48.090;11.464;2023-05-06T18:01:17;18.00;94.90
27779;DHT22;30234;48.090;11.464;2023-05-06T18:05:19;17.80;95.90
27779;DHT22;30234;48.090;11.464;2023-05-06T18:09:21;17.50;97.40
27779;DHT22;30234;48.090;11.464;2023-05-06T18:13:22;17.30;99.40
27779;DHT22;30234;48.090;11.464;2023-05-06T18:17:23;17.00;99.90
27779;DHT22;30234;48.090;11.464;2023-05-06T18:21:24;16.70;99.90
27779;DHT22;30234;48.090;11.464;2023-05-06T18:25:25;16.40;99.90
27779;DHT22;30234;48.090;11.464;2023-05-06T18:29:26;16.20;99.90
27779;DHT22;30234;48.090;11.464;2023-05-06T18:33:29;16.00;99.90
27779;DHT22;30234;48.090;11.464;2023-05-06T18:37:30;15.60;99.90
27779;DHT22;30234;48.090;11.464;2023-05-06T18:41:32;15.30;99.90
27779;DHT22;30234;48.090;11.464;2023-05-06T18:45:33;15.00;99.90
27779;DHT22;30234;48.090;11.464;2023-05-06T18:49:34;14.80;99.90
27779;DHT22;30234;48.090;11.464;2023-05-06T18:53:35;14.60;99.90
27779;DHT22;30234;48.090;11.464;2023-05-06T18:57:36;14.40;99.90
27779;DHT22;30234;48.090;11.464;2023-05-06T19:01:38;14.40;99.90
27779;DHT22;30234;48.090;11.464;2023-05-06T19:05:39;14.20;99.90
27779;DHT22;30234;48.090;11.464;2023-05-06T19:09:40;14.10;99.90
27779;DHT22;30234;48.090;11.464;2023-05-06T19:13:43;13.70;99.90
27779;DHT22;30234;48.090;11.464;2023-05-06T19:17:44;13.60;99.90
27779;DHT22;30234;48.090;11.464;2023-05-06T19:21:46;13.60;99.90
27779;DHT22;30234;48.090;11.464;2023-05-06T19:25:47;13.70;99.90
27779;DHT22;30234;48.090;11.464;2023-05-06T19:29:48;13.50;99.90
27779;DHT22;30234;48.090;11.464;2023-05-06T19:33:49;13.20;99.90
27779;DHT22;30234;48.090;11.464;2023-05-06T19:37:51;13.10;99.90
27779;DHT22;30234;48.090;11.464;2023-05-06T19:41:52;13.00;99.90
27779;DHT22;30234;48.090;11.464;2023-05-06T19:45:54;13.00;99.90
27779;DHT22;30234;48.090;11.464;2023-05-06T19:49:55;13.00;99.90
27779;DHT22;30234;48.090;11.464;2023-05-06T19:53:56;12.70;99.90
27779;DHT22;30234;48.090;11.464;2023-05-06T19:57:58;12.40;99.90
27779;DHT22;30234;48.090;11.464;2023-05-06T20:02:01;12.40;99.90
27779;DHT22;30234;48.090;11.464;2023-05-06T20:06:02;12.30;99.90
27779;DHT22;30234;48.090;11.464;2023-05-06T20:10:04;12.30;99.90
27779;DHT22;30234;48.090;11.464;2023-05-06T20:14:06;12.20;99.90
27779;DHT22;30234;48.090;11.464;2023-05-06T20:18:07;12.30;99.90
27779;DHT22;30234;48.090;11.464;2023-05-06T20:22:08;12.60;99.90
27779;DHT22;30234;48.090;11.464;2023-05-06T20:26:09;12.60;99.90
27779;DHT22;30234;48.090;11.464;2023-05-06T20:30:10;12.40;99.90
27779;DHT22;30234;48.090;11.464;2023-05-06T20:34:12;12.20;99.90
27779;DHT22;30234;48.090;11.464;2023-05-06T20:38:13;12.10;99.90
27779;DHT22;30234;48.090;11.464;2023-05-06T20:42:16;12.00;99.90
27779;DHT22;30234;48.090;11.464;2023-05-06T20:46:17;12.10;99.90
27779;DHT22;30234;48.090;11.464;2023-05-06T20:50:19;12.10;99.90
27779;DHT22;30234;48.090;11.464;2023-05-06T20:54:20;11.90;99.90
27779;DHT22;30234;48.090;11.464;2023-05-06T20:58:21;11.70;99.90
27779;DHT22;30234;48.090;11.464;2023-05-06T21:02:23;11.50;99.90
27779;DHT22;30234;48.090;11.464;2023-05-06T21:06:23;11.30;99.90
27779;DHT22;30234;48.090;11.464;2023-05-06T21:10:25;11.30;99.90
27779;DHT22;30234;48.090;11.464;2023-05-06T21:14:26;11.30;99.90
27779;DHT22;30234;48.090;11.464;2023-05-06T21:18:27;11.40;99.90
27779;DHT22;30234;48.090;11.464;2023-05-06T21:22:27;11.30;99.90
27779;DHT22;30234;48.090;11.464;2023-05-06T21:26:31;11.10;99.90
27779;DHT22;30234;48.090;11.464;2023-05-06T21:30:36;11.20;99.90
27779;DHT22;30234;48.090;11.464;2023-05-06T21:34:37;11.40;99.90
27779;DHT22;30234;48.090;11.464;2023-05-06T21:38:38;11.20;99.90
27779;DHT22;30234;48.090;11.464;2023-05-06T21:42:39;11.00;99.90
27779;DHT22;30234;48.090;11.464;2023-05-06T21:46:40;10.90;99.90
27779;DHT22;30234;48.090;11.464;2023-05-06T21:50:41;10.90;99.90
27779;DHT22;30234;48.090;11.464;2023-05-06T21:54:44;10.90;99.90
27779;DHT22;30234;48.090;11.464;2023-05-06T21:58:45;10.90;99.90
27779;DHT22;30234;48.090;11.464;2023-05-06T22:02:46;10.80;99.90
27779;DHT22;30234;48.090;11.464;2023-05-06T22:06:47;10.70;99.90
27779;DHT22;30234;48.090;11.464;2023-05-06T22:10:48;10.60;99.90
27779;DHT22;30234;48.090;11.464;2023-05-06T22:14:49;10.60;99.90
27779;DHT22;30234;48.090;11.464;2023-05-06T22:18:50;10.80;99.90
27779;DHT22;30234;48.090;11.464;2023-05-06T22:22:51;10.90;99.90
27779;DHT22;30234;48.090;11.464;2023-05-06T22:26:52;10.80;99.90
27779;DHT22;30234;48.090;11.464;2023-05-06T22:30:53;10.70;99.90
27779;DHT22;30234;48.090;11.464;2023-05-06T22:34:54;10.70;99.90
27779;DHT22;30234;48.090;11.464;2023-05-06T22:38:55;10.60;99.90
27779;DHT22;30234;48.090;11.464;2023-05-06T22:42:55;10.40;99.90
27779;DHT22;30234;48.090;11.464;2023-05-06T22:46:56;10.50;99.90
27779;DHT22;30234;48.090;11.464;2023-05-06T22:50:57;10.50;99.90
27779;DHT22;30234;48.090;11.464;2023-05-06T22:54:58;10.60;99.90
27779;DHT22;30234;48.090;11.464;2023-05-06T22:58:59;10.60;99.90
27779;DHT22;30234;48.090;11.464;2023-05-06T23:03:00;10.30;99.90
27779;DHT22;30234;48.090;11.464;2023-05-06T23:07:01;10.50;99.90
27779;DHT22;30234;48.090;11.464;2023-05-06T23:11:02;10.40;99.90
27779;DHT22;30234;48.090;11.464;2023-05-06T23:15:03;10.20;99.90
27779;DHT22;30234;48.090;11.464;2023-05-06T23:19:05;10.10;99.90
27779;DHT22;30234;48.090;11.464;2023-05-06T23:23:06;10.00;99.90
27779;DHT22;30234;48.090;11.464;2023-05-06T23:27:10;9.90;99.90
27779;DHT22;30234;48.090;11.464;2023-05-06T23:31:11;9.80;99.90
27779;DHT22;30234;48.090;11.464;2023-05-06T23:35:12;9.90;99.90
27779;DHT22;30234;48.090;11.464;2023-05-06T23:39:12;9.80;99.90
27779;DHT22;30234;48.090;11.464;2023-05-06T23:43:13;10.00;99.90
27779;DHT22;30234;48.090;11.464;2023-05-06T23:47:14;10.20;99.90
27779;DHT22;30234;48.090;11.464;2023-05-06T23:51:15;10.10;99.90
27779;DHT22;30234;48.090;11.464;2023-05-06T23:55:16;9.90;99.90
27779;DHT22;30234;48.090;11.464;2023-05-06T23:59:17;9.80;99.90
